createdAt,value
2019-01-14T00:00:04.881Z,984.12
2019-01-14T00:01:04.902Z,984.14
2019-01-14T00:02:04.910Z,984.18
2019-01-14T00:03:04.940Z,984.18
2019-01-14T00:04:04.924Z,984.28
2019-01-14T00:05:04.940Z,984.33
2019-01-14T00:06:10.134Z,984.40
2019-01-14T00:07:05.006Z,984.44
2019-01-14T00:08:04.994Z,984.52
2019-01-14T00:09:05.014Z,984.53
2019-01-14T00:10:05.056Z,984.65
2019-01-14T00:11:05.042Z,984.55
2019-01-14T00:12:05.069Z,984.67
2019-01-14T00:13:05.080Z,984.54
2019-01-14T00:14:05.097Z,984.62
2019-01-14T00:15:05.169Z,984.70
2019-01-14T00:16:05.166Z,984.70
2019-01-14T00:17:05.138Z,984.81
2019-01-14T00:18:05.319Z,984.78
2019-01-14T00:19:05.180Z,984.72
2019-01-14T00:20:05.204Z,984.66
2019-01-14T00:21:05.208Z,984.73
2019-01-14T00:22:05.254Z,984.65
2019-01-14T00:23:05.251Z,984.59
2019-01-14T00:24:05.269Z,984.61
2019-01-14T00:25:05.260Z,984.63
2019-01-14T00:26:05.285Z,984.60
2019-01-14T00:27:05.319Z,984.57
2019-01-14T00:28:05.311Z,984.66
2019-01-14T00:29:05.376Z,984.56
2019-01-14T00:30:05.346Z,984.58
2019-01-14T00:31:05.382Z,984.53
2019-01-14T00:32:05.436Z,984.61
2019-01-14T00:33:05.393Z,984.63
2019-01-14T00:34:05.446Z,984.65
2019-01-14T00:35:05.436Z,984.67
2019-01-14T00:36:05.442Z,984.73
2019-01-14T00:37:05.560Z,984.73
2019-01-14T00:38:05.575Z,984.83
2019-01-14T00:39:05.521Z,984.94
2019-01-14T00:40:05.550Z,984.99
2019-01-14T00:41:05.531Z,984.97
2019-01-14T00:42:05.534Z,985.02
2019-01-14T00:43:05.575Z,985.00
2019-01-14T00:44:05.584Z,985.14
2019-01-14T00:45:05.609Z,985.12
2019-01-14T00:46:05.601Z,985.07
2019-01-14T00:47:05.619Z,985.18
2019-01-14T00:48:05.644Z,985.14
2019-01-14T00:49:05.651Z,985.19
2019-01-14T00:50:05.715Z,985.19
2019-01-14T00:51:05.681Z,985.18
2019-01-14T00:52:05.703Z,985.31
2019-01-14T00:53:05.715Z,985.38
2019-01-14T00:54:05.728Z,985.35
2019-01-14T00:55:05.759Z,985.40
2019-01-14T00:56:05.791Z,985.42
2019-01-14T00:57:05.836Z,985.38
2019-01-14T00:58:05.796Z,985.46
2019-01-14T00:59:05.816Z,985.46
2019-01-14T01:00:05.834Z,985.54
2019-01-14T01:01:05.881Z,985.49
2019-01-14T01:02:05.877Z,985.57
2019-01-14T01:03:05.878Z,985.64
2019-01-14T01:04:05.892Z,985.64
2019-01-14T01:05:05.927Z,985.67
2019-01-14T01:06:06.021Z,985.73
2019-01-14T01:07:05.956Z,985.72
2019-01-14T01:08:05.955Z,985.65
2019-01-14T01:09:06.056Z,985.91
2019-01-14T01:10:06.003Z,985.77
2019-01-14T01:11:06.029Z,985.82
2019-01-14T01:12:06.096Z,985.75
2019-01-14T01:13:06.061Z,985.79
2019-01-14T01:14:06.060Z,985.77
2019-01-14T01:15:06.074Z,985.84
2019-01-14T01:16:06.082Z,985.87
2019-01-14T01:17:06.124Z,985.75
2019-01-14T01:18:06.179Z,985.84
2019-01-14T01:19:06.148Z,985.91
2019-01-14T01:20:06.164Z,985.86
2019-01-14T01:21:06.163Z,985.95
2019-01-14T01:22:06.180Z,985.94
2019-01-14T01:23:06.208Z,986.00
2019-01-14T01:24:06.243Z,985.99
2019-01-14T01:25:06.352Z,986.08
2019-01-14T01:26:06.253Z,986.04
2019-01-14T01:27:06.261Z,986.15
2019-01-14T01:28:06.281Z,986.07
2019-01-14T01:29:06.418Z,986.14
2019-01-14T01:30:06.308Z,986.10
2019-01-14T01:31:06.343Z,986.18
2019-01-14T01:32:06.373Z,986.21
2019-01-14T01:33:06.359Z,986.21
2019-01-14T01:34:06.371Z,986.18
2019-01-14T01:35:06.401Z,986.27
2019-01-14T01:36:06.406Z,986.30
2019-01-14T01:37:06.431Z,986.33
2019-01-14T01:38:06.458Z,986.32
2019-01-14T01:39:06.519Z,986.36
2019-01-14T01:40:06.551Z,986.33
2019-01-14T01:41:06.487Z,986.47
2019-01-14T01:42:06.508Z,986.40
2019-01-14T01:43:06.539Z,986.46
2019-01-14T01:44:06.534Z,986.49
2019-01-14T01:45:06.555Z,986.44
2019-01-14T01:46:06.581Z,986.47
2019-01-14T01:47:06.605Z,986.55
2019-01-14T01:48:06.609Z,986.56
2019-01-14T01:49:06.676Z,986.66
2019-01-14T01:50:06.683Z,986.63
2019-01-14T01:51:06.654Z,986.66
2019-01-14T01:52:06.664Z,986.68
2019-01-14T01:53:06.689Z,986.64
2019-01-14T01:54:06.736Z,986.66
2019-01-14T01:55:06.714Z,986.77
2019-01-14T01:56:06.739Z,986.89
2019-01-14T01:57:06.748Z,986.92
2019-01-14T01:58:06.760Z,986.71
2019-01-14T01:59:06.909Z,986.92
2019-01-14T02:00:06.968Z,986.89
2019-01-14T02:01:06.876Z,987.06
2019-01-14T02:02:06.833Z,986.85
2019-01-14T02:03:06.918Z,987.00
2019-01-14T02:04:06.989Z,986.98
2019-01-14T02:05:06.871Z,987.04
2019-01-14T02:06:06.902Z,987.06
2019-01-14T02:07:06.902Z,987.03
2019-01-14T02:08:07.017Z,987.05
2019-01-14T02:09:06.943Z,987.08
2019-01-14T02:10:06.955Z,987.12
2019-01-14T02:11:06.978Z,987.13
2019-01-14T02:12:06.991Z,987.15
2019-01-14T02:13:07.061Z,987.10
2019-01-14T02:14:07.016Z,987.18
2019-01-14T02:15:07.058Z,987.20
2019-01-14T02:16:07.109Z,987.20
2019-01-14T02:17:07.082Z,987.19
2019-01-14T02:18:07.099Z,987.32
2019-01-14T02:19:07.105Z,987.27
2019-01-14T02:20:07.108Z,987.34
2019-01-14T02:21:07.137Z,987.38
2019-01-14T02:22:07.175Z,987.46
2019-01-14T02:23:07.167Z,987.44
2019-01-14T02:24:07.187Z,987.40
2019-01-14T02:25:07.217Z,987.52
2019-01-14T02:26:07.216Z,987.47
2019-01-14T02:27:07.225Z,987.57
2019-01-14T02:28:07.241Z,987.58
2019-01-14T02:29:07.284Z,987.67
2019-01-14T02:30:07.399Z,987.62
2019-01-14T02:31:07.290Z,987.66
2019-01-14T02:32:07.303Z,987.78
2019-01-14T02:33:07.336Z,987.75
2019-01-14T02:34:07.352Z,987.77
2019-01-14T02:35:07.349Z,987.78
2019-01-14T02:36:07.400Z,987.86
2019-01-14T02:37:07.384Z,987.88
2019-01-14T02:38:07.407Z,987.86
2019-01-14T02:39:07.418Z,987.92
2019-01-14T02:40:07.435Z,987.93
2019-01-14T02:41:07.445Z,987.99
2019-01-14T02:42:07.507Z,987.98
2019-01-14T02:43:07.477Z,988.09
2019-01-14T02:44:07.500Z,988.00
2019-01-14T02:45:07.517Z,988.15
2019-01-14T02:46:07.519Z,988.10
2019-01-14T02:47:07.537Z,988.21
2019-01-14T02:48:07.571Z,988.09
2019-01-14T02:49:07.567Z,988.12
2019-01-14T02:50:07.586Z,988.16
2019-01-14T02:51:07.604Z,988.26
2019-01-14T02:52:07.635Z,988.21
2019-01-14T02:53:07.629Z,988.28
2019-01-14T02:54:07.653Z,988.32
2019-01-14T02:55:07.680Z,988.34
2019-01-14T02:56:07.700Z,988.32
2019-01-14T02:57:07.699Z,988.37
2019-01-14T02:58:07.711Z,988.40
2019-01-14T02:59:07.815Z,988.34
2019-01-14T03:00:07.740Z,988.35
2019-01-14T03:01:07.784Z,988.34
2019-01-14T03:02:07.784Z,988.36
2019-01-14T03:03:07.848Z,988.35
2019-01-14T03:04:07.909Z,988.28
2019-01-14T03:05:07.840Z,988.35
2019-01-14T03:06:07.883Z,988.40
2019-01-14T03:07:07.859Z,988.35
2019-01-14T03:08:07.875Z,988.35
2019-01-14T03:09:07.897Z,988.34
2019-01-14T03:10:07.896Z,988.37
2019-01-14T03:11:07.927Z,988.30
2019-01-14T03:12:07.959Z,988.36
2019-01-14T03:13:07.943Z,988.43
2019-01-14T03:14:07.963Z,988.37
2019-01-14T03:15:08.011Z,988.36
2019-01-14T03:16:07.991Z,988.35
2019-01-14T03:17:08.024Z,988.39
2019-01-14T03:18:08.037Z,988.42
2019-01-14T03:19:08.048Z,988.43
2019-01-14T03:20:08.054Z,988.49
2019-01-14T03:21:08.070Z,988.58
2019-01-14T03:22:08.098Z,988.56
2019-01-14T03:23:08.151Z,988.63
2019-01-14T03:24:08.112Z,988.66
2019-01-14T03:25:08.240Z,988.73
2019-01-14T03:26:08.202Z,988.71
2019-01-14T03:27:08.166Z,988.76
2019-01-14T03:28:08.178Z,988.70
2019-01-14T03:29:08.200Z,988.76
2019-01-14T03:30:08.220Z,988.80
2019-01-14T03:31:08.226Z,988.86
2019-01-14T03:32:08.376Z,988.83
2019-01-14T03:33:08.255Z,988.91
2019-01-14T03:34:08.280Z,988.90
2019-01-14T03:35:08.297Z,988.90
2019-01-14T03:36:08.342Z,988.86
2019-01-14T03:37:08.315Z,988.97
2019-01-14T03:38:08.342Z,988.99
2019-01-14T03:39:08.355Z,989.04
2019-01-14T03:40:08.398Z,989.12
2019-01-14T03:41:08.392Z,989.05
2019-01-14T03:42:08.398Z,989.20
2019-01-14T03:43:08.409Z,989.04
2019-01-14T03:44:08.429Z,989.13
2019-01-14T03:45:08.436Z,989.10
2019-01-14T03:46:08.456Z,989.18
2019-01-14T03:47:08.473Z,989.17
2019-01-14T03:48:08.485Z,989.21
2019-01-14T03:49:08.498Z,989.14
2019-01-14T03:50:08.539Z,989.20
2019-01-14T03:51:08.538Z,989.17
2019-01-14T03:52:08.560Z,989.26
2019-01-14T03:53:08.605Z,989.25
2019-01-14T03:54:08.629Z,989.26
2019-01-14T03:55:08.601Z,989.20
2019-01-14T03:56:08.655Z,989.30
2019-01-14T03:57:08.663Z,989.22
2019-01-14T03:58:08.671Z,989.24
2019-01-14T03:59:08.668Z,989.18
2019-01-14T04:00:08.683Z,989.17
2019-01-14T04:01:08.696Z,989.28
2019-01-14T04:02:08.701Z,989.31
2019-01-14T04:03:08.723Z,989.31
2019-01-14T04:04:08.740Z,989.31
2019-01-14T04:05:08.761Z,989.33
2019-01-14T04:06:08.767Z,989.33
2019-01-14T04:07:13.505Z,989.36
2019-01-14T04:08:08.826Z,989.36
2019-01-14T04:09:08.829Z,989.36
2019-01-14T04:10:08.841Z,989.35
2019-01-14T04:11:08.843Z,989.42
2019-01-14T04:12:08.905Z,989.49
2019-01-14T04:13:08.880Z,989.55
2019-01-14T04:14:08.899Z,989.49
2019-01-14T04:15:08.956Z,989.48
2019-01-14T04:16:08.922Z,989.50
2019-01-14T04:17:08.970Z,989.57
2019-01-14T04:18:08.957Z,989.48
2019-01-14T04:19:08.978Z,989.52
2019-01-14T04:20:09.004Z,989.46
2019-01-14T04:21:09.013Z,989.45
2019-01-14T04:22:09.063Z,989.46
2019-01-14T04:23:09.057Z,989.51
2019-01-14T04:24:09.057Z,989.37
2019-01-14T04:25:09.061Z,989.46
2019-01-14T04:26:09.075Z,989.41
2019-01-14T04:27:09.112Z,989.44
2019-01-14T04:28:09.142Z,989.44
2019-01-14T04:29:09.147Z,989.48
2019-01-14T04:30:09.151Z,989.52
2019-01-14T04:31:09.156Z,989.50
2019-01-14T04:32:09.171Z,989.44
2019-01-14T04:33:09.199Z,989.46
2019-01-14T04:34:09.209Z,989.45
2019-01-14T04:35:09.265Z,989.48
2019-01-14T04:36:09.252Z,989.47
2019-01-14T04:37:09.246Z,989.48
2019-01-14T04:38:09.266Z,989.52
2019-01-14T04:39:09.288Z,989.52
2019-01-14T04:40:09.296Z,989.46
2019-01-14T04:41:09.315Z,989.44
2019-01-14T04:42:09.330Z,989.51
2019-01-14T04:43:09.368Z,989.51
2019-01-14T04:44:09.382Z,989.50
2019-01-14T04:45:09.400Z,989.48
2019-01-14T04:46:09.393Z,989.51
2019-01-14T04:47:09.443Z,989.55
2019-01-14T04:48:09.635Z,989.59
2019-01-14T04:49:09.439Z,989.55
2019-01-14T04:50:09.462Z,989.57
2019-01-14T04:51:09.474Z,989.59
2019-01-14T04:52:09.490Z,989.58
2019-01-14T04:53:09.510Z,989.58
2019-01-14T04:54:09.523Z,989.62
2019-01-14T04:55:09.542Z,989.59
2019-01-14T04:56:09.551Z,989.55
2019-01-14T04:57:09.575Z,989.55
2019-01-14T04:58:09.684Z,989.61
2019-01-14T04:59:09.603Z,989.62
2019-01-14T05:00:09.612Z,989.67
2019-01-14T05:01:09.642Z,989.62
2019-01-14T05:02:09.641Z,989.69
2019-01-14T05:03:09.673Z,989.64
2019-01-14T05:04:09.685Z,989.61
2019-01-14T05:05:09.694Z,989.59
2019-01-14T05:06:09.718Z,989.62
2019-01-14T05:07:09.741Z,989.60
2019-01-14T05:08:09.740Z,989.62
2019-01-14T05:09:09.760Z,989.62
2019-01-14T05:10:09.770Z,989.67
2019-01-14T05:11:09.778Z,989.66
2019-01-14T05:12:09.803Z,989.68
2019-01-14T05:13:09.858Z,989.71
2019-01-14T05:14:09.825Z,989.75
2019-01-14T05:15:09.854Z,989.76
2019-01-14T05:16:09.868Z,989.78
2019-01-14T05:17:09.877Z,989.79
2019-01-14T05:18:09.902Z,989.80
2019-01-14T05:19:09.922Z,989.84
2019-01-14T05:20:09.923Z,989.77
2019-01-14T05:21:09.947Z,989.82
2019-01-14T05:22:09.971Z,989.84
2019-01-14T05:23:09.989Z,989.83
2019-01-14T05:24:10.035Z,989.88
2019-01-14T05:25:10.029Z,989.87
2019-01-14T05:26:10.015Z,989.95
2019-01-14T05:27:10.061Z,989.97
2019-01-14T05:28:10.058Z,990.03
2019-01-14T05:29:10.065Z,989.99
2019-01-14T05:30:10.118Z,989.94
2019-01-14T05:31:10.106Z,989.99
2019-01-14T05:32:10.251Z,989.94
2019-01-14T05:33:10.124Z,989.97
2019-01-14T05:34:10.144Z,989.97
2019-01-14T05:35:10.248Z,989.95
2019-01-14T05:36:10.163Z,989.89
2019-01-14T05:37:10.198Z,989.96
2019-01-14T05:38:10.250Z,989.95
2019-01-14T05:39:10.217Z,989.99
2019-01-14T05:40:10.293Z,989.95
2019-01-14T05:41:10.260Z,989.96
2019-01-14T05:42:10.276Z,990.00
2019-01-14T05:43:10.290Z,989.96
2019-01-14T05:44:10.295Z,990.02
2019-01-14T05:45:10.347Z,990.03
2019-01-14T05:46:10.336Z,990.06
2019-01-14T05:47:10.337Z,990.02
2019-01-14T05:48:10.358Z,990.03
2019-01-14T05:49:10.379Z,990.05
2019-01-14T05:50:10.407Z,990.02
2019-01-14T05:51:10.403Z,990.10
2019-01-14T05:52:10.412Z,990.10
2019-01-14T05:53:10.430Z,990.14
2019-01-14T05:54:10.461Z,990.16
2019-01-14T05:55:10.469Z,990.07
2019-01-14T05:56:10.476Z,990.06
2019-01-14T05:57:10.513Z,989.99
2019-01-14T05:58:10.502Z,990.07
2019-01-14T05:59:10.648Z,990.09
2019-01-14T06:00:10.569Z,990.06
2019-01-14T06:01:10.549Z,990.09
2019-01-14T06:02:10.567Z,990.08
2019-01-14T06:03:10.617Z,990.13
2019-01-14T06:04:10.596Z,990.13
2019-01-14T06:05:10.666Z,990.13
2019-01-14T06:06:10.640Z,990.15
2019-01-14T06:07:10.646Z,990.13
2019-01-14T06:08:10.658Z,990.17
2019-01-14T06:09:10.672Z,990.12
2019-01-14T06:10:10.686Z,990.08
2019-01-14T06:11:10.783Z,990.12
2019-01-14T06:12:10.715Z,990.05
2019-01-14T06:13:10.756Z,990.04
2019-01-14T06:14:10.757Z,990.03
2019-01-14T06:15:10.804Z,990.01
2019-01-14T06:16:10.789Z,990.05
2019-01-14T06:17:10.957Z,990.07
2019-01-14T06:18:10.802Z,990.12
2019-01-14T06:19:10.818Z,990.12
2019-01-14T06:20:10.860Z,990.14
2019-01-14T06:21:10.846Z,990.20
2019-01-14T06:22:10.875Z,990.25
2019-01-14T06:23:10.889Z,990.22
2019-01-14T06:24:10.905Z,990.21
2019-01-14T06:25:10.991Z,990.21
2019-01-14T06:26:10.925Z,990.32
2019-01-14T06:27:10.944Z,990.30
2019-01-14T06:28:10.965Z,990.35
2019-01-14T06:29:10.972Z,990.38
2019-01-14T06:30:11.093Z,990.37
2019-01-14T06:31:11.007Z,990.42
2019-01-14T06:32:11.022Z,990.45
2019-01-14T06:33:11.028Z,990.35
2019-01-14T06:34:11.046Z,990.50
2019-01-14T06:35:11.100Z,990.50
2019-01-14T06:36:11.085Z,990.47
2019-01-14T06:37:11.091Z,990.49
2019-01-14T06:38:11.109Z,990.51
2019-01-14T06:39:11.126Z,990.56
2019-01-14T06:40:11.143Z,990.54
2019-01-14T06:41:11.190Z,990.55
2019-01-14T06:42:11.167Z,990.53
2019-01-14T06:43:11.175Z,990.56
2019-01-14T06:44:11.191Z,990.56
2019-01-14T06:45:11.211Z,990.55
2019-01-14T06:46:11.226Z,990.62
2019-01-14T06:47:11.256Z,990.68
2019-01-14T06:48:11.253Z,990.72
2019-01-14T06:49:11.266Z,990.66
2019-01-14T06:50:11.325Z,990.70
2019-01-14T06:51:11.301Z,990.83
2019-01-14T06:52:11.318Z,990.87
2019-01-14T06:53:11.337Z,990.80
2019-01-14T06:54:11.365Z,990.91
2019-01-14T06:55:11.369Z,990.86
2019-01-14T06:56:11.375Z,990.94
2019-01-14T06:57:11.397Z,990.94
2019-01-14T06:58:11.477Z,990.99
2019-01-14T06:59:11.424Z,991.03
2019-01-14T07:00:11.431Z,991.05
2019-01-14T07:01:11.604Z,991.06
2019-01-14T07:02:11.502Z,991.13
2019-01-14T07:03:11.510Z,991.13
2019-01-14T07:04:11.544Z,991.16
2019-01-14T07:05:11.509Z,991.18
2019-01-14T07:06:11.560Z,991.17
2019-01-14T07:07:11.554Z,991.22
2019-01-14T07:08:11.600Z,991.31
2019-01-14T07:09:11.578Z,991.27
2019-01-14T07:10:11.592Z,991.26
2019-01-14T07:11:11.605Z,991.37
2019-01-14T07:12:11.616Z,991.32
2019-01-14T07:13:11.638Z,991.35
2019-01-14T07:14:11.654Z,991.29
2019-01-14T07:15:11.679Z,991.31
2019-01-14T07:16:11.728Z,991.27
2019-01-14T07:17:11.698Z,991.42
2019-01-14T07:18:11.725Z,991.29
2019-01-14T07:19:11.722Z,991.36
2019-01-14T07:20:11.740Z,991.29
2019-01-14T07:21:11.752Z,991.48
2019-01-14T07:22:11.788Z,991.42
2019-01-14T07:23:11.789Z,991.48
2019-01-14T07:24:11.807Z,991.48
2019-01-14T07:25:11.824Z,991.55
2019-01-14T07:26:11.832Z,991.54
2019-01-14T07:27:11.840Z,991.49
2019-01-14T07:28:11.866Z,991.57
2019-01-14T07:29:11.908Z,991.57
2019-01-14T07:30:11.948Z,991.56
2019-01-14T07:31:11.908Z,991.58
2019-01-14T07:32:11.934Z,991.61
2019-01-14T07:33:11.985Z,991.63
2019-01-14T07:34:11.956Z,991.66
2019-01-14T07:35:11.985Z,991.72
2019-01-14T07:36:11.992Z,991.75
2019-01-14T07:37:12.022Z,991.74
2019-01-14T07:38:12.009Z,991.79
2019-01-14T07:39:12.031Z,991.94
2019-01-14T07:40:12.048Z,991.81
2019-01-14T07:41:12.059Z,991.85
2019-01-14T07:42:12.102Z,991.87
2019-01-14T07:43:12.114Z,991.80
2019-01-14T07:44:12.126Z,991.89
2019-01-14T07:45:12.114Z,991.92
2019-01-14T07:46:12.134Z,991.90
2019-01-14T07:47:12.161Z,991.94
2019-01-14T07:48:12.227Z,991.99
2019-01-14T07:49:12.211Z,991.94
2019-01-14T07:50:12.225Z,991.96
2019-01-14T07:51:12.217Z,992.01
2019-01-14T07:52:12.295Z,991.97
2019-01-14T07:53:12.251Z,991.95
2019-01-14T07:54:12.268Z,991.93
2019-01-14T07:55:12.266Z,991.98
2019-01-14T07:56:12.301Z,992.04
2019-01-14T07:57:12.309Z,992.09
2019-01-14T07:58:12.392Z,992.10
2019-01-14T07:59:12.340Z,992.12
2019-01-14T08:00:12.419Z,992.18
2019-01-14T08:01:12.368Z,992.17
2019-01-14T08:02:12.383Z,992.16
2019-01-14T08:03:12.402Z,992.27
2019-01-14T08:04:12.453Z,992.35
2019-01-14T08:05:12.436Z,992.25
2019-01-14T08:06:12.436Z,992.20
2019-01-14T08:07:12.480Z,992.35
2019-01-14T08:08:14.225Z,992.38
2019-01-14T08:09:12.504Z,992.38
2019-01-14T08:10:12.499Z,992.44
2019-01-14T08:11:12.562Z,992.45
2019-01-14T08:12:12.529Z,992.32
2019-01-14T08:13:12.567Z,992.38
2019-01-14T08:14:14.193Z,992.40
2019-01-14T08:15:12.590Z,992.42
2019-01-14T08:16:12.643Z,992.41
2019-01-14T08:17:12.604Z,992.38
2019-01-14T08:18:12.641Z,992.40
2019-01-14T08:19:12.699Z,992.46
2019-01-14T08:20:12.658Z,992.41
2019-01-14T08:21:12.797Z,992.47
2019-01-14T08:22:12.695Z,992.46
2019-01-14T08:23:12.698Z,992.52
2019-01-14T08:24:12.789Z,992.53
2019-01-14T08:25:12.730Z,992.64
2019-01-14T08:26:12.746Z,992.68
2019-01-14T08:27:12.824Z,992.61
2019-01-14T08:28:12.803Z,992.67
2019-01-14T08:29:12.812Z,992.63
2019-01-14T08:30:12.812Z,992.70
2019-01-14T08:31:12.842Z,992.71
2019-01-14T08:32:12.857Z,992.67
2019-01-14T08:33:12.856Z,992.73
2019-01-14T08:34:12.879Z,992.75
2019-01-14T08:35:12.935Z,992.72
2019-01-14T08:36:12.908Z,992.74
2019-01-14T08:37:12.943Z,992.71
2019-01-14T08:38:12.935Z,992.67
2019-01-14T08:39:12.957Z,992.76
2019-01-14T08:40:13.000Z,992.73
2019-01-14T08:41:12.998Z,992.93
2019-01-14T08:42:12.993Z,992.73
2019-01-14T08:43:13.016Z,992.78
2019-01-14T08:44:13.027Z,992.82
2019-01-14T08:45:13.079Z,992.91
2019-01-14T08:46:13.107Z,992.80
2019-01-14T08:47:13.102Z,992.82
2019-01-14T08:48:13.090Z,992.81
2019-01-14T08:49:13.110Z,992.80
2019-01-14T08:50:13.130Z,992.84
2019-01-14T08:51:13.151Z,992.89
2019-01-14T08:52:13.151Z,992.94
2019-01-14T08:53:13.172Z,992.92
2019-01-14T08:54:13.207Z,992.97
2019-01-14T08:55:13.197Z,992.91
2019-01-14T08:56:13.218Z,992.94
2019-01-14T08:57:13.285Z,992.99
2019-01-14T08:58:13.258Z,992.93
2019-01-14T08:59:13.285Z,993.02
2019-01-14T09:00:13.314Z,992.89
2019-01-14T09:01:13.286Z,992.76
2019-01-14T09:02:13.325Z,992.84
2019-01-14T09:03:13.355Z,993.02
2019-01-14T09:04:13.334Z,993.01
2019-01-14T09:05:13.352Z,993.07
2019-01-14T09:06:13.378Z,993.03
2019-01-14T09:07:13.397Z,993.09
2019-01-14T09:08:13.400Z,993.29
2019-01-14T09:09:13.434Z,993.35
2019-01-14T09:10:13.425Z,993.29
2019-01-14T09:11:13.448Z,993.18
2019-01-14T09:12:13.475Z,993.25
2019-01-14T09:13:13.473Z,993.21
2019-01-14T09:14:13.485Z,993.27
2019-01-14T09:15:13.501Z,993.27
2019-01-14T09:16:13.512Z,993.25
2019-01-14T09:17:13.535Z,993.41
2019-01-14T09:18:13.564Z,993.31
2019-01-14T09:19:13.568Z,993.30
2019-01-14T09:20:13.574Z,993.29
2019-01-14T09:21:13.594Z,993.34
2019-01-14T09:22:13.610Z,993.30
2019-01-14T09:23:13.624Z,993.34
2019-01-14T09:24:13.642Z,993.40
2019-01-14T09:25:13.663Z,993.37
2019-01-14T09:26:13.680Z,993.38
2019-01-14T09:27:13.713Z,993.36
2019-01-14T09:28:13.710Z,993.45
2019-01-14T09:29:13.719Z,993.45
2019-01-14T09:30:13.745Z,993.51
2019-01-14T09:31:13.758Z,993.44
2019-01-14T09:32:13.759Z,993.42
2019-01-14T09:33:13.789Z,993.53
2019-01-14T09:34:13.826Z,993.59
2019-01-14T09:35:13.831Z,993.59
2019-01-14T09:36:13.822Z,993.62
2019-01-14T09:37:13.841Z,993.53
2019-01-14T09:38:13.870Z,993.59
2019-01-14T09:39:13.880Z,993.60
2019-01-14T09:40:13.906Z,993.63
2019-01-14T09:41:13.916Z,993.59
2019-01-14T09:42:13.920Z,993.62
2019-01-14T09:43:13.966Z,993.56
2019-01-14T09:44:13.964Z,993.63
2019-01-14T09:45:13.991Z,993.66
2019-01-14T09:46:13.991Z,993.74
2019-01-14T09:47:14.028Z,993.83
2019-01-14T09:48:14.015Z,993.85
2019-01-14T09:49:14.070Z,993.77
2019-01-14T09:50:14.051Z,993.72
2019-01-14T09:51:14.058Z,993.82
2019-01-14T09:52:14.100Z,993.78
2019-01-14T09:53:14.090Z,993.76
2019-01-14T09:54:14.143Z,993.76
2019-01-14T09:55:14.143Z,993.71
2019-01-14T09:56:14.142Z,993.76
2019-01-14T09:57:14.175Z,993.75
2019-01-14T09:58:14.173Z,993.72
2019-01-14T09:59:14.191Z,993.64
2019-01-14T10:00:14.213Z,993.66
2019-01-14T10:01:14.210Z,993.70
2019-01-14T10:02:14.238Z,993.78
2019-01-14T10:03:14.258Z,993.86
2019-01-14T10:04:14.262Z,993.98
2019-01-14T10:05:14.303Z,993.97
2019-01-14T10:06:14.325Z,993.96
2019-01-14T10:07:14.356Z,993.87
2019-01-14T10:08:14.313Z,993.79
2019-01-14T10:09:14.355Z,993.86
2019-01-14T10:10:14.387Z,993.86
2019-01-14T10:11:14.404Z,993.79
2019-01-14T10:12:14.388Z,993.85
2019-01-14T10:13:14.391Z,993.85
2019-01-14T10:14:14.406Z,993.91
2019-01-14T10:15:14.521Z,993.96
2019-01-14T10:16:14.445Z,993.99
2019-01-14T10:17:14.458Z,994.13
2019-01-14T10:18:14.472Z,994.01
2019-01-14T10:19:14.502Z,994.11
2019-01-14T10:20:14.509Z,994.04
2019-01-14T10:21:14.553Z,994.14
2019-01-14T10:22:14.546Z,994.09
2019-01-14T10:23:14.605Z,994.05
2019-01-14T10:24:14.589Z,994.09
2019-01-14T10:25:14.580Z,994.18
2019-01-14T10:26:16.177Z,994.17
2019-01-14T10:27:14.615Z,994.10
2019-01-14T10:28:14.625Z,994.21
2019-01-14T10:29:14.725Z,994.14
2019-01-14T10:30:14.669Z,994.08
2019-01-14T10:31:14.686Z,994.13
2019-01-14T10:32:14.698Z,994.13
2019-01-14T10:33:14.710Z,994.12
2019-01-14T10:34:14.781Z,994.10
2019-01-14T10:35:14.745Z,994.13
2019-01-14T10:36:14.753Z,994.13
2019-01-14T10:37:14.794Z,994.17
2019-01-14T10:38:14.831Z,994.14
2019-01-14T10:39:14.805Z,994.13
2019-01-14T10:40:14.827Z,994.21
2019-01-14T10:41:14.831Z,994.19
2019-01-14T10:42:14.863Z,994.27
2019-01-14T10:43:14.903Z,994.31
2019-01-14T10:44:14.886Z,994.22
2019-01-14T10:45:14.905Z,994.20
2019-01-14T10:46:14.927Z,994.21
2019-01-14T10:47:14.958Z,994.19
2019-01-14T10:48:14.942Z,994.06
2019-01-14T10:49:14.966Z,994.10
2019-01-14T10:50:14.974Z,994.17
2019-01-14T10:51:15.102Z,994.19
2019-01-14T10:52:15.005Z,994.11
2019-01-14T10:53:15.030Z,994.12
2019-01-14T10:54:15.121Z,994.20
2019-01-14T10:55:15.051Z,994.12
2019-01-14T10:56:15.071Z,994.12
2019-01-14T10:57:15.102Z,994.22
2019-01-14T10:58:15.110Z,994.26
2019-01-14T10:59:15.132Z,994.29
2019-01-14T11:00:15.139Z,994.23
2019-01-14T11:01:15.161Z,994.32
2019-01-14T11:02:15.161Z,994.32
2019-01-14T11:03:15.267Z,994.34
2019-01-14T11:04:15.198Z,994.34
2019-01-14T11:05:15.216Z,994.39
2019-01-14T11:06:15.233Z,994.31
2019-01-14T11:07:15.391Z,994.23
2019-01-14T11:08:15.278Z,994.26
2019-01-14T11:09:15.490Z,994.22
2019-01-14T11:10:15.311Z,994.33
2019-01-14T11:11:15.567Z,994.32
2019-01-14T11:12:15.366Z,994.29
2019-01-14T11:13:15.336Z,994.33
2019-01-14T11:14:15.358Z,994.33
2019-01-14T11:15:15.378Z,994.38
2019-01-14T11:16:15.513Z,994.27
2019-01-14T11:17:15.407Z,994.22
2019-01-14T11:18:15.438Z,994.35
2019-01-14T11:19:15.437Z,994.18
2019-01-14T11:20:15.447Z,994.17
2019-01-14T11:21:15.502Z,994.25
2019-01-14T11:22:15.588Z,994.28
2019-01-14T11:23:15.498Z,994.34
2019-01-14T11:24:15.511Z,994.33
2019-01-14T11:25:15.541Z,994.30
2019-01-14T11:26:15.539Z,994.35
2019-01-14T11:27:15.589Z,994.30
2019-01-14T11:28:15.576Z,994.25
2019-01-14T11:29:15.826Z,994.23
2019-01-14T11:30:15.618Z,994.31
2019-01-14T11:31:15.634Z,994.22
2019-01-14T11:32:15.642Z,994.27
2019-01-14T11:33:15.666Z,994.15
2019-01-14T11:34:15.677Z,994.14
2019-01-14T11:35:15.722Z,994.23
2019-01-14T11:36:15.723Z,994.13
2019-01-14T11:37:15.802Z,994.17
2019-01-14T11:38:15.734Z,994.08
2019-01-14T11:39:15.764Z,994.23
2019-01-14T11:40:15.768Z,994.25
2019-01-14T11:41:15.874Z,994.17
2019-01-14T11:42:15.811Z,994.22
2019-01-14T11:43:15.857Z,994.31
2019-01-14T11:44:15.829Z,994.27
2019-01-14T11:45:15.965Z,994.26
2019-01-14T11:46:15.876Z,994.28
2019-01-14T11:47:15.883Z,994.32
2019-01-14T11:48:15.942Z,994.42
2019-01-14T11:49:15.924Z,994.37
2019-01-14T11:50:17.243Z,994.38
2019-01-14T11:51:15.955Z,994.37
2019-01-14T11:52:15.980Z,994.40
2019-01-14T11:53:15.988Z,994.53
2019-01-14T11:54:15.999Z,994.40
2019-01-14T11:55:16.010Z,994.39
2019-01-14T11:56:16.021Z,994.39
2019-01-14T11:57:16.043Z,994.29
2019-01-14T11:58:16.075Z,994.31
2019-01-14T11:59:16.070Z,994.46
2019-01-14T12:00:16.150Z,994.35
2019-01-14T12:01:16.101Z,994.33
2019-01-14T12:02:16.155Z,994.22
2019-01-14T12:03:16.141Z,994.42
2019-01-14T12:04:16.303Z,994.38
2019-01-14T12:05:16.172Z,994.43
2019-01-14T12:06:16.210Z,994.32
2019-01-14T12:07:16.200Z,994.32
2019-01-14T12:08:16.220Z,994.31
2019-01-14T12:09:16.231Z,994.31
2019-01-14T12:10:16.317Z,994.26
2019-01-14T12:11:16.323Z,994.30
2019-01-14T12:12:16.278Z,994.18
2019-01-14T12:13:16.377Z,994.34
2019-01-14T12:14:16.396Z,994.37
2019-01-14T12:15:16.356Z,994.38
2019-01-14T12:16:16.373Z,994.46
2019-01-14T12:17:16.376Z,994.58
2019-01-14T12:18:16.439Z,994.56
2019-01-14T12:19:16.396Z,994.77
2019-01-14T12:20:16.412Z,994.66
2019-01-14T12:21:16.456Z,994.63
2019-01-14T12:22:16.444Z,994.61
2019-01-14T12:23:16.450Z,994.72
2019-01-14T12:24:16.467Z,994.72
2019-01-14T12:25:16.490Z,994.75
2019-01-14T12:26:16.514Z,994.76
2019-01-14T12:27:16.563Z,994.82
2019-01-14T12:28:16.544Z,994.85